createdAt,value
2022-11-02T00:00:24.346Z,65.79
2022-11-02T00:02:51.472Z,66.02
2022-11-02T00:05:23.910Z,66.04
2022-11-02T00:07:52.684Z,65.35
2022-11-02T00:10:20.988Z,65.22
2022-11-02T00:12:48.837Z,65.60
2022-11-02T00:15:16.381Z,65.31
2022-11-02T00:17:49.056Z,65.93
2022-11-02T00:20:18.525Z,65.50
2022-11-02T00:22:48.473Z,66.74
2022-11-02T00:25:19.041Z,67.73
2022-11-02T00:27:46.194Z,67.54
2022-11-02T00:30:14.813Z,67.94
2022-11-02T00:32:41.854Z,67.57
2022-11-02T00:35:10.297Z,67.63
2022-11-02T00:37:37.647Z,68.10
2022-11-02T00:40:05.640Z,68.13
2022-11-02T00:42:32.665Z,67.51
2022-11-02T00:44:59.774Z,67.13
2022-11-02T00:47:26.866Z,67.43
2022-11-02T00:49:54.583Z,67.44
2022-11-02T00:52:21.847Z,67.30
2022-11-02T00:54:52.402Z,66.36
2022-11-02T00:57:19.413Z,66.57
2022-11-02T00:59:46.480Z,66.61
2022-11-02T01:02:16.145Z,66.95
2022-11-02T01:04:43.380Z,67.00
2022-11-02T01:07:10.477Z,65.81
2022-11-02T01:09:37.507Z,65.60
2022-11-02T01:12:05.903Z,65.61
2022-11-02T01:14:33.195Z,65.10
2022-11-02T01:17:00.277Z,65.31
2022-11-02T01:19:27.935Z,65.77
2022-11-02T01:21:57.117Z,66.00
2022-11-02T01:24:24.156Z,66.44
2022-11-02T01:26:52.832Z,66.20
2022-11-02T01:29:19.946Z,67.11
2022-11-02T01:31:48.768Z,68.00
2022-11-02T01:34:17.580Z,68.08
2022-11-02T01:36:46.582Z,67.29
2022-11-02T01:39:14.609Z,68.04
2022-11-02T01:41:42.514Z,68.21
2022-11-02T01:44:31.528Z,68.49
2022-11-02T01:47:12.517Z,68.89
2022-11-02T01:49:42.558Z,68.92
2022-11-02T01:52:22.762Z,68.87
2022-11-02T01:54:55.751Z,69.48
2022-11-02T01:57:23.386Z,69.03
2022-11-02T01:59:57.883Z,69.00
2022-11-02T02:02:27.404Z,69.22
2022-11-02T02:05:02.507Z,69.19
2022-11-02T02:07:32.615Z,68.10
2022-11-02T02:10:00.687Z,67.85
2022-11-02T02:12:30.481Z,67.40
2022-11-02T02:14:58.970Z,68.22
2022-11-02T02:17:43.891Z,68.17
2022-11-02T02:20:17.586Z,68.58
2022-11-02T02:22:50.725Z,68.70
2022-11-02T02:25:29.841Z,68.43
2022-11-02T02:27:59.985Z,68.77
2022-11-02T02:30:31.220Z,69.21
2022-11-02T02:33:05.850Z,69.05
2022-11-02T02:35:44.134Z,69.10
2022-11-02T02:38:36.268Z,69.97
2022-11-02T02:41:15.482Z,70.15
2022-11-02T02:43:50.601Z,70.36
2022-11-02T02:46:27.423Z,70.54
2022-11-02T02:48:58.091Z,70.32
2022-11-02T02:51:30.273Z,70.66
2022-11-02T02:54:00.531Z,71.25
2022-11-02T02:56:32.809Z,70.29
2022-11-02T02:59:06.042Z,70.30
2022-11-02T03:01:34.984Z,70.48
2022-11-02T03:04:02.579Z,70.21
2022-11-02T03:06:35.389Z,69.51
2022-11-02T03:09:29.113Z,69.43
2022-11-02T03:12:20.550Z,69.60
2022-11-02T03:15:12.521Z,68.82
2022-11-02T03:18:08.831Z,69.04
2022-11-02T03:20:55.347Z,68.42
2022-11-02T03:23:56.175Z,68.54
2022-11-02T03:26:26.240Z,68.67
2022-11-02T03:29:24.273Z,69.49
2022-11-02T03:32:07.278Z,69.77
2022-11-02T03:34:40.210Z,69.13
2022-11-02T03:37:14.339Z,68.95
2022-11-02T03:39:47.115Z,68.97
2022-11-02T03:42:18.982Z,67.91
2022-11-02T03:44:56.242Z,67.54
2022-11-02T03:47:23.987Z,68.14
2022-11-02T03:49:55.786Z,68.24
2022-11-02T03:52:29.343Z,68.91
2022-11-02T03:55:10.957Z,68.87
2022-11-02T03:57:45.847Z,68.07
2022-11-02T04:00:18.004Z,67.08
2022-11-02T04:02:57.629Z,68.35
2022-11-02T04:05:34.246Z,70.02
2022-11-02T04:08:21.647Z,68.92
2022-11-02T04:11:11.587Z,69.78
2022-11-02T04:13:58.447Z,69.13
2022-11-02T04:16:28.513Z,68.99
2022-11-02T04:19:16.684Z,70.93
2022-11-02T04:22:04.689Z,71.11
2022-11-02T04:24:52.536Z,70.88
2022-11-02T04:27:21.331Z,69.87
2022-11-02T04:29:51.197Z,70.62
2022-11-02T04:32:39.063Z,70.84
2022-11-02T04:35:10.329Z,70.73
2022-11-02T04:38:02.498Z,70.30
2022-11-02T04:40:34.833Z,69.26
2022-11-02T04:43:04.183Z,69.13
2022-11-02T04:45:32.352Z,69.24
2022-11-02T04:48:01.052Z,70.09
2022-11-02T04:50:28.686Z,69.78
2022-11-02T04:53:03.841Z,69.36
2022-11-02T04:55:33.841Z,68.33
2022-11-02T04:58:01.064Z,69.24
2022-11-02T05:00:28.387Z,69.67
2022-11-02T05:02:55.954Z,69.26
2022-11-02T05:05:24.612Z,69.12
2022-11-02T05:07:55.044Z,68.18
2022-11-02T05:10:23.102Z,68.23
2022-11-02T05:12:58.015Z,67.15
2022-11-02T05:15:28.178Z,68.33
2022-11-02T05:17:55.315Z,68.42
2022-11-02T05:20:22.461Z,69.17
2022-11-02T05:22:49.849Z,69.77
2022-11-02T05:25:18.742Z,71.09
2022-11-02T05:27:45.860Z,71.49
2022-11-02T05:30:14.265Z,72.93
2022-11-02T05:32:43.396Z,73.79
2022-11-02T05:35:10.573Z,73.03
2022-11-02T05:37:38.837Z,71.40
2022-11-02T05:40:06.838Z,69.69
2022-11-02T05:42:33.841Z,69.59
2022-11-02T05:45:01.055Z,69.67
2022-11-02T05:47:28.136Z,70.06
2022-11-02T05:49:55.138Z,69.37
2022-11-02T05:52:22.989Z,68.83
2022-11-02T05:54:50.485Z,70.43
2022-11-02T05:57:18.541Z,70.54
2022-11-02T05:59:48.406Z,70.84
2022-11-02T06:02:16.468Z,70.94
2022-11-02T06:04:43.498Z,71.24
2022-11-02T06:07:10.510Z,72.01
2022-11-02T06:09:37.527Z,71.08
2022-11-02T06:12:04.773Z,69.21
2022-11-02T06:14:31.801Z,69.91
2022-11-02T06:16:58.861Z,70.59
2022-11-02T06:19:25.935Z,71.25
2022-11-02T06:21:53.017Z,70.26
2022-11-02T06:24:20.054Z,70.45
2022-11-02T06:26:47.164Z,69.82
2022-11-02T06:29:14.367Z,69.83
2022-11-02T06:31:42.589Z,68.42
2022-11-02T06:34:09.637Z,68.03
2022-11-02T06:36:37.136Z,67.92
2022-11-02T06:39:04.285Z,69.48
2022-11-02T06:41:31.306Z,69.43
2022-11-02T06:43:59.652Z,70.49
2022-11-02T06:46:26.744Z,68.78
2022-11-02T06:48:53.933Z,68.65
2022-11-02T06:51:21.002Z,68.53
2022-11-02T06:53:48.040Z,68.23
2022-11-02T06:56:15.752Z,66.97
2022-11-02T06:58:42.842Z,66.40
2022-11-02T07:01:10.890Z,66.81
2022-11-02T07:03:38.196Z,67.36
2022-11-02T07:06:09.706Z,68.39
2022-11-02T07:08:39.895Z,67.86
2022-11-02T07:11:07.148Z,69.25
2022-11-02T07:13:34.311Z,68.64
2022-11-02T07:16:01.426Z,68.86
2022-11-02T07:18:28.469Z,69.65
2022-11-02T07:20:58.625Z,69.35
2022-11-02T07:23:25.732Z,68.82
2022-11-02T07:25:53.044Z,69.39
2022-11-02T07:28:20.453Z,68.84
2022-11-02T07:30:47.554Z,68.80
2022-11-02T07:33:14.697Z,69.05
2022-11-02T07:35:42.480Z,69.61
2022-11-02T07:38:11.130Z,69.68
2022-11-02T07:40:39.148Z,67.87
2022-11-02T07:43:07.196Z,68.47
2022-11-02T07:45:46.246Z,68.62
2022-11-02T07:48:13.323Z,69.88
2022-11-02T07:50:40.374Z,70.36
2022-11-02T07:53:07.741Z,70.69
2022-11-02T07:55:35.071Z,69.36
2022-11-02T07:58:05.034Z,68.57
2022-11-02T08:00:35.985Z,69.71
2022-11-02T08:03:04.256Z,67.99
2022-11-02T08:05:34.685Z,68.45
2022-11-02T08:08:04.775Z,69.47
2022-11-02T08:10:37.367Z,68.96
2022-11-02T08:13:13.248Z,67.75
2022-11-02T08:15:40.696Z,68.05
2022-11-02T08:18:14.703Z,68.64
2022-11-02T08:20:41.914Z,69.59
2022-11-02T08:23:11.106Z,69.22
2022-11-02T08:25:39.611Z,68.96
2022-11-02T08:28:08.743Z,67.49
2022-11-02T08:30:37.580Z,67.11
2022-11-02T08:33:11.799Z,66.98
2022-11-02T08:35:40.125Z,66.22
2022-11-02T08:38:08.102Z,67.06
2022-11-02T08:40:36.840Z,66.06
2022-11-02T08:43:09.219Z,66.28
2022-11-02T08:46:12.448Z,65.40
2022-11-02T08:48:26.869Z,65.71
2022-11-02T08:50:54.280Z,66.13
2022-11-02T08:53:21.305Z,65.86
2022-11-02T08:55:48.324Z,65.97
2022-11-02T08:58:15.357Z,66.09
2022-11-02T09:00:42.813Z,66.35
2022-11-02T09:03:13.386Z,66.41
2022-11-02T09:05:45.373Z,66.52
2022-11-02T09:08:17.456Z,66.48
2022-11-02T09:10:48.277Z,66.18
2022-11-02T09:13:16.051Z,66.22
2022-11-02T09:15:43.122Z,67.46
2022-11-02T09:18:10.618Z,67.06
2022-11-02T09:20:37.726Z,66.15
2022-11-02T09:23:05.066Z,65.21
2022-11-02T09:25:32.422Z,65.35
2022-11-02T09:27:59.873Z,65.77
2022-11-02T09:30:28.726Z,64.97
2022-11-02T09:33:05.399Z,64.91
2022-11-02T09:35:35.674Z,65.66
2022-11-02T09:38:03.709Z,66.14
2022-11-02T09:40:38.477Z,65.18
2022-11-02T09:43:08.803Z,64.72
2022-11-02T09:45:46.980Z,65.26
2022-11-02T09:48:27.792Z,63.74
2022-11-02T09:51:08.765Z,64.69
2022-11-02T09:53:50.628Z,64.05
2022-11-02T09:56:22.117Z,64.10
2022-11-02T09:58:57.378Z,65.27
2022-11-02T10:01:46.930Z,65.75
2022-11-02T10:04:44.703Z,66.79
2022-11-02T10:07:29.727Z,66.49
2022-11-02T10:09:59.554Z,65.48
2022-11-02T10:12:35.606Z,66.80
2022-11-02T10:15:11.607Z,67.27
2022-11-02T10:17:41.527Z,66.33
2022-11-02T10:20:22.819Z,65.84
2022-11-02T10:22:50.076Z,65.50
2022-11-02T10:25:17.797Z,65.19
2022-11-02T10:27:49.726Z,65.39
2022-11-02T10:30:20.214Z,65.05
2022-11-02T10:32:52.768Z,64.27
2022-11-02T10:39:16.983Z,63.04
2022-11-02T10:41:52.366Z,62.49
2022-11-02T10:44:39.356Z,64.83
2022-11-02T10:47:17.894Z,64.79
2022-11-02T10:49:57.512Z,65.03
2022-11-02T10:52:25.022Z,64.46
2022-11-02T10:54:52.125Z,64.26
2022-11-02T10:57:25.368Z,63.76
2022-11-02T11:00:28.548Z,62.76
2022-11-02T11:03:13.749Z,61.84
2022-11-02T11:05:55.956Z,62.17
2022-11-02T11:08:42.999Z,61.99
2022-11-02T11:11:10.919Z,63.13
2022-11-02T11:16:39.777Z,64.25
2022-11-02T11:19:38.864Z,64.85
2022-11-02T11:22:39.323Z,64.46
2022-11-02T11:25:12.414Z,63.35
2022-11-02T11:27:48.281Z,63.12
2022-11-02T11:33:24.749Z,62.33
2022-11-02T11:35:52.183Z,62.79
2022-11-02T11:38:22.804Z,62.24
2022-11-02T11:40:57.774Z,61.88
2022-11-02T11:43:38.553Z,62.73
2022-11-02T11:46:08.338Z,63.67
2022-11-02T11:48:56.097Z,63.57
2022-11-02T11:51:45.193Z,62.98
2022-11-02T11:54:21.287Z,63.54
2022-11-02T11:56:50.070Z,63.03
2022-11-02T11:59:25.072Z,62.12
2022-11-02T12:01:57.103Z,62.00
2022-11-02T12:04:35.930Z,61.94
2022-11-02T12:07:21.260Z,61.93
2022-11-02T12:10:02.910Z,62.14
2022-11-02T12:12:53.752Z,61.99
2022-11-02T12:15:32.942Z,62.13
2022-11-02T12:18:14.295Z,62.63
2022-11-02T12:20:57.148Z,64.43
2022-11-02T12:23:42.876Z,63.63
2022-11-02T12:26:09.896Z,63.46
2022-11-02T12:28:51.881Z,64.22
2022-11-02T12:31:39.496Z,65.21
2022-11-02T12:34:30.760Z,65.27
2022-11-02T12:37:35.331Z,65.02
2022-11-02T12:39:56.950Z,65.52
2022-11-02T12:42:30.286Z,65.52
2022-11-02T12:45:06.402Z,65.70
2022-11-02T12:47:45.429Z,65.79
2022-11-02T12:50:34.035Z,65.43
2022-11-02T12:53:25.677Z,65.08
2022-11-02T12:55:57.943Z,65.04
2022-11-02T12:58:38.789Z,65.04
2022-11-02T13:01:21.240Z,66.19
2022-11-02T13:03:48.297Z,65.70
2022-11-02T13:06:20.971Z,65.64
2022-11-02T13:09:20.664Z,65.65
2022-11-02T13:11:54.549Z,66.05
2022-11-02T13:14:24.625Z,67.09
2022-11-02T13:17:02.421Z,66.56
2022-11-02T13:19:37.264Z,67.52
2022-11-02T13:22:09.052Z,67.79
2022-11-02T13:25:02.885Z,67.92
2022-11-02T13:27:36.303Z,66.82
2022-11-02T13:30:13.416Z,66.00
2022-11-02T13:33:02.935Z,65.86
2022-11-02T13:35:34.610Z,66.49
2022-11-02T13:38:32.517Z,66.56
2022-11-02T13:41:11.601Z,66.84
2022-11-02T13:43:48.698Z,67.18
2022-11-02T13:46:41.894Z,67.55
2022-11-02T13:49:17.456Z,67.61
2022-11-02T13:51:48.983Z,67.75
2022-11-02T13:54:30.430Z,67.20
2022-11-02T13:56:58.993Z,66.90
2022-11-02T13:59:33.359Z,66.85
2022-11-02T14:02:04.716Z,66.96
2022-11-02T14:04:40.263Z,68.24
2022-11-02T14:07:19.972Z,68.76
2022-11-02T14:09:47.497Z,68.02
2022-11-02T14:12:17.240Z,67.04
2022-11-02T14:14:45.523Z,65.67
2022-11-02T14:17:19.085Z,65.68
2022-11-02T14:19:49.251Z,65.41
2022-11-02T14:22:18.405Z,66.63
2022-11-02T14:24:45.354Z,67.00
2022-11-02T14:27:12.452Z,66.62
2022-11-02T14:29:42.973Z,66.24
2022-11-02T14:32:34.873Z,65.27
2022-11-02T14:35:34.514Z,65.21
2022-11-02T14:38:31.120Z,66.83
2022-11-02T14:41:16.840Z,67.17
2022-11-02T14:43:56.313Z,67.39
2022-11-02T14:46:47.474Z,68.26
2022-11-02T14:49:33.717Z,68.77
2022-11-02T14:52:04.610Z,68.34
2022-11-02T14:55:22.189Z,67.51
2022-11-02T14:58:10.372Z,67.19
2022-11-02T15:00:47.410Z,67.17
2022-11-02T15:03:39.102Z,67.49
2022-11-02T15:06:17.825Z,68.51
2022-11-02T15:08:55.367Z,68.91
2022-11-02T15:11:47.288Z,68.99
2022-11-02T15:14:33.994Z,68.71
2022-11-02T15:17:02.384Z,68.47
2022-11-02T15:19:53.802Z,67.11
2022-11-02T15:22:35.638Z,66.38
2022-11-02T15:25:08.901Z,65.27
2022-11-02T15:27:37.926Z,65.67
2022-11-02T15:30:18.102Z,65.73
2022-11-02T15:32:50.957Z,66.51
2022-11-02T15:35:22.747Z,67.44
2022-11-02T15:38:15.919Z,67.58
2022-11-02T15:40:57.761Z,67.92
2022-11-02T15:44:05.436Z,67.13
2022-11-02T15:46:58.015Z,66.43
2022-11-02T15:49:33.783Z,66.90
2022-11-02T15:52:22.735Z,66.54
2022-11-02T15:54:53.027Z,66.84
2022-11-02T15:57:27.259Z,66.39
2022-11-02T16:00:13.054Z,64.76
2022-11-02T16:02:45.729Z,66.28
2022-11-02T16:05:20.793Z,66.95
2022-11-02T16:10:41.031Z,67.85
2022-11-02T16:13:08.056Z,67.93
2022-11-02T16:15:38.252Z,68.77
2022-11-02T16:18:05.503Z,68.97
2022-11-02T16:20:40.266Z,68.75
2022-11-02T16:23:15.934Z,67.59
2022-11-02T16:25:47.621Z,66.83
2022-11-02T16:28:32.605Z,66.43
2022-11-02T16:31:17.212Z,65.39
2022-11-02T16:33:54.437Z,66.04
2022-11-02T16:36:35.174Z,66.97
2022-11-02T16:39:17.690Z,65.64
2022-11-02T16:41:52.384Z,65.39
2022-11-02T16:44:28.337Z,66.11
2022-11-02T16:47:07.515Z,66.30
2022-11-02T16:49:55.644Z,66.93
2022-11-02T16:52:31.633Z,66.75
2022-11-02T16:54:58.993Z,65.65
2022-11-02T16:57:44.000Z,65.66
2022-11-02T17:00:19.220Z,66.20
2022-11-02T17:02:47.663Z,65.92
2022-11-02T17:05:19.583Z,67.25
2022-11-02T17:07:56.120Z,68.28
2022-11-02T17:10:29.119Z,67.85
2022-11-02T17:12:57.443Z,67.63
2022-11-02T17:15:29.780Z,66.50
2022-11-02T17:18:09.510Z,66.17
2022-11-02T17:20:38.107Z,66.51
2022-11-02T17:23:32.766Z,66.21
2022-11-02T17:26:25.830Z,65.92
2022-11-02T17:28:57.677Z,66.92
2022-11-02T17:31:38.518Z,67.06
2022-11-02T17:34:19.141Z,67.19
2022-11-02T17:36:49.197Z,66.54
2022-11-02T17:39:17.835Z,66.44
2022-11-02T17:42:08.069Z,66.31
2022-11-02T17:44:35.211Z,66.90
2022-11-02T17:47:02.976Z,67.00
2022-11-02T17:49:30.111Z,68.07
2022-11-02T17:51:57.320Z,69.12
2022-11-02T17:54:24.589Z,68.13
2022-11-02T17:56:52.085Z,67.34
2022-11-02T17:59:19.158Z,66.91
2022-11-02T18:01:46.406Z,68.32
2022-11-02T18:04:13.666Z,69.48
2022-11-02T18:06:41.262Z,70.04
2022-11-02T18:09:11.280Z,69.27
2022-11-02T18:11:38.367Z,68.73
2022-11-02T18:14:05.750Z,68.77
2022-11-02T18:16:32.891Z,68.52
2022-11-02T18:18:59.936Z,68.62
2022-11-02T18:21:26.976Z,68.96
2022-11-02T18:23:54.039Z,68.17
2022-11-02T18:26:21.109Z,67.96
2022-11-02T18:28:49.511Z,68.61
2022-11-02T18:31:16.842Z,68.17
2022-11-02T18:33:43.984Z,68.60
2022-11-02T18:36:11.585Z,69.12
2022-11-02T18:38:38.780Z,68.93
2022-11-02T18:41:27.268Z,68.43
2022-11-02T18:44:04.152Z,69.43
2022-11-02T18:46:33.030Z,69.88
2022-11-02T18:49:00.169Z,71.01
2022-11-02T18:51:28.267Z,70.74
2022-11-02T18:54:04.437Z,70.43
2022-11-02T18:56:32.068Z,70.94
2022-11-02T18:58:59.305Z,70.12
2022-11-02T19:01:26.602Z,69.43
2022-11-02T19:03:56.272Z,70.29
2022-11-02T19:06:44.180Z,70.23
2022-11-02T19:09:18.599Z,70.17
2022-11-02T19:12:00.877Z,70.71
2022-11-02T19:14:34.510Z,72.12
2022-11-02T19:17:02.547Z,72.90
2022-11-02T19:19:29.869Z,73.25
2022-11-02T19:21:57.006Z,72.83
2022-11-02T19:24:24.143Z,72.54
2022-11-02T19:26:51.507Z,71.97
2022-11-02T19:29:19.404Z,71.01
2022-11-02T19:31:46.855Z,72.07
2022-11-02T19:34:14.151Z,72.63
2022-11-02T19:36:41.457Z,72.43
2022-11-02T19:39:09.748Z,69.84
2022-11-02T19:41:38.871Z,70.38
2022-11-02T19:44:06.691Z,71.19
2022-11-02T19:46:34.845Z,72.59
2022-11-02T19:49:01.993Z,72.54
2022-11-02T19:51:30.539Z,71.24
2022-11-02T19:53:59.942Z,71.97
2022-11-02T19:56:29.170Z,71.80
2022-11-02T19:58:57.042Z,72.60
2022-11-02T20:01:26.604Z,73.15
2022-11-02T20:03:55.045Z,73.36
2022-11-02T20:06:25.492Z,72.82
2022-11-02T20:08:55.101Z,72.04
2022-11-02T20:11:23.910Z,71.97
2022-11-02T20:13:53.794Z,71.08
2022-11-02T20:16:20.990Z,71.06
2022-11-02T20:18:50.491Z,70.42
2022-11-02T20:21:20.378Z,70.13
2022-11-02T20:23:48.109Z,70.65
2022-11-02T20:26:20.906Z,69.25
2022-11-02T20:28:48.883Z,69.89
2022-11-02T20:31:20.967Z,71.13
2022-11-02T20:33:49.195Z,71.83
2022-11-02T20:36:19.346Z,71.87
2022-11-02T20:38:46.787Z,72.47
2022-11-02T20:41:16.486Z,72.42
2022-11-02T20:43:45.944Z,71.45
2022-11-02T20:46:45.307Z,72.12
2022-11-02T20:49:22.311Z,71.57
2022-11-02T20:52:02.170Z,71.76
2022-11-02T20:54:30.039Z,71.36
2022-11-02T20:56:57.820Z,71.50
2022-11-02T20:59:25.417Z,71.46
2022-11-02T21:01:52.516Z,70.48
2022-11-02T21:04:21.497Z,68.76
2022-11-02T21:06:49.968Z,68.72
2022-11-02T21:09:17.772Z,67.89
2022-11-02T21:12:03.539Z,68.98
2022-11-02T21:14:30.609Z,69.58
2022-11-02T21:16:57.706Z,69.25
2022-11-02T21:19:24.839Z,69.93
2022-11-02T21:21:58.067Z,70.10
2022-11-02T21:24:27.090Z,70.73
2022-11-02T21:26:54.417Z,71.53
2022-11-02T21:29:21.653Z,71.48
2022-11-02T21:31:49.215Z,71.06
2022-11-02T21:34:16.512Z,71.28
2022-11-02T21:36:43.645Z,70.26
2022-11-02T21:39:11.883Z,69.66
2022-11-02T21:41:39.542Z,69.58
2022-11-02T21:44:07.712Z,68.57
2022-11-02T21:46:35.744Z,68.43
2022-11-02T21:49:03.093Z,68.36
2022-11-02T21:51:30.414Z,69.52
2022-11-02T21:53:57.471Z,69.92
2022-11-02T21:56:26.443Z,69.58
2022-11-02T21:58:55.523Z,69.36
2022-11-02T22:01:43.646Z,68.76
2022-11-02T22:04:25.371Z,68.42
2022-11-02T22:06:53.020Z,68.15
2022-11-02T22:09:20.852Z,68.89
2022-11-02T22:11:48.120Z,67.69
2022-11-02T22:14:15.202Z,68.49
2022-11-02T22:16:43.533Z,70.63
2022-11-02T22:19:12.877Z,71.05
2022-11-02T22:21:43.063Z,71.27
2022-11-02T22:24:11.374Z,71.49
2022-11-02T22:26:45.275Z,70.72
2022-11-02T22:29:12.322Z,70.31
2022-11-02T22:31:40.961Z,69.75
2022-11-02T22:34:10.658Z,69.41
2022-11-02T22:36:39.622Z,69.69
2022-11-02T22:39:08.843Z,69.66
2022-11-02T22:41:40.039Z,70.22
2022-11-02T22:44:18.521Z,71.07
2022-11-02T22:46:48.323Z,70.29
2022-11-02T22:49:18.209Z,71.56
2022-11-02T22:51:47.498Z,71.49
2022-11-02T22:54:19.692Z,71.60
2022-11-02T22:56:48.557Z,70.31
2022-11-02T22:59:15.967Z,69.65
2022-11-02T23:01:43.405Z,69.37
2022-11-02T23:04:11.880Z,71.04
2022-11-02T23:06:40.531Z,71.96
2022-11-02T23:09:10.415Z,72.79
2022-11-02T23:11:37.961Z,72.83
2022-11-02T23:14:06.345Z,71.31
2022-11-02T23:16:38.939Z,71.72
2022-11-02T23:19:27.219Z,71.61
2022-11-02T23:22:28.430Z,70.33
2022-11-02T23:25:11.811Z,69.19
2022-11-02T23:28:06.504Z,70.77
2022-11-02T23:30:54.580Z,71.53
2022-11-02T23:33:24.097Z,72.52
2022-11-02T23:36:10.701Z,72.76
2022-11-02T23:39:03.790Z,71.82
2022-11-02T23:41:32.369Z,70.89
2022-11-02T23:44:12.928Z,71.09
2022-11-02T23:46:42.063Z,71.53
2022-11-02T23:49:09.821Z,71.54
2022-11-02T23:51:55.423Z,70.76
2022-11-02T23:54:41.015Z,71.08
2022-11-02T23:57:08.050Z,72.54
2022-11-02T23:59:35.077Z,73.48
